Time;durP1;ratioP1;P1;durP2;ratioP2;P2;SDS_P1;SDS_P2;PMS_P1;PMS_P2;Temp;Humidity;BMP_temperature;BMP_pressure;BME280_temperature;BME280_humidity;BME280_pressure;Samples;Min_cycle;Max_cycle;Signal;HPM_P1;HPM_P2
2022/07/05 00:00:17;;;;;;;1.67;0.80;;;16.50;75.60;;;;;;2068435;28;20034;-94
2022/07/05 00:01:36;;;;;;;1.73;1.00;;;16.40;75.70;;;;;;2068878;28;20041;-94
2022/07/05 00:02:55;;;;;;;1.52;0.80;;;16.30;76.40;;;;;;2075924;28;20450;-94
2022/07/05 00:04:15;;;;;;;2.13;1.00;;;16.30;75.90;;;;;;2074350;28;20038;-95
2022/07/05 00:05:35;;;;;;;1.85;0.88;;;16.30;75.90;;;;;;2076868;28;20045;-94
2022/07/05 00:08:32;;;;;;;1.60;0.80;;;16.30;75.90;;;;;;2081960;28;20101;-95
2022/07/05 00:09:56;;;;;;;1.95;1.00;;;16.20;75.90;;;;;;2082556;28;20038;-95
2022/07/05 00:11:15;;;;;;;1.90;0.95;;;16.20;76.00;;;;;;2081292;28;20049;-95
2022/07/05 00:12:34;;;;;;;1.67;0.77;;;16.20;76.10;;;;;;2074389;28;20042;-95
2022/07/05 00:13:54;;;;;;;1.20;0.82;;;16.20;76.20;;;;;;2081379;28;20037;-94
2022/07/05 00:15:13;;;;;;;1.55;0.95;;;16.20;76.30;;;;;;2079422;28;20042;-94
2022/07/05 00:16:32;;;;;;;1.85;0.80;;;16.10;76.30;;;;;;2079561;28;20523;-96
2022/07/05 00:17:52;;;;;;;1.48;1.05;;;16.10;76.40;;;;;;2071038;28;20460;-95
2022/07/05 00:19:12;;;;;;;1.00;0.70;;;16.10;76.50;;;;;;2071019;28;20042;-95
2022/07/05 00:20:31;;;;;;;1.95;1.00;;;16.20;76.50;;;;;;2079994;28;20044;-95
2022/07/05 00:21:50;;;;;;;3.63;0.85;;;16.20;76.60;;;;;;2080347;28;20539;-94
2022/07/05 00:23:09;;;;;;;2.17;0.90;;;16.20;76.60;;;;;;2071139;28;20124;-95
2022/07/05 00:24:29;;;;;;;2.03;0.70;;;16.20;76.60;;;;;;2072016;28;20466;-94
2022/07/05 00:25:48;;;;;;;0.90;0.70;;;16.20;76.60;;;;;;2076111;28;20041;-94
2022/07/05 00:27:07;;;;;;;2.17;0.85;;;16.20;76.60;;;;;;2080942;28;20033;-94
2022/07/05 00:28:26;;;;;;;2.10;0.90;;;16.20;76.60;;;;;;2075986;28;20447;-95
2022/07/05 00:29:45;;;;;;;1.58;0.77;;;16.20;76.70;;;;;;2080925;28;20041;-94
2022/07/05 00:31:05;;;;;;;1.83;1.00;;;16.20;76.80;;;;;;2064280;28;20042;-94
2022/07/05 00:32:24;;;;;;;1.33;0.90;;;16.10;76.70;;;;;;2073355;28;20034;-95
2022/07/05 00:33:43;;;;;;;2.05;0.80;;;16.10;76.80;;;;;;2078935;28;20046;-95
2022/07/05 00:35:04;;;;;;;1.55;0.90;;;16.10;76.90;;;;;;2083801;28;20033;-95
2022/07/05 00:36:24;;;;;;;1.60;0.80;;;16.10;76.90;;;;;;2079812;28;20101;-94
2022/07/05 00:37:43;;;;;;;1.88;0.90;;;16.10;76.80;;;;;;2068046;28;20025;-95
2022/07/05 00:39:03;;;;;;;1.83;0.80;;;16.10;76.90;;;;;;2078468;28;20029;-94
2022/07/05 00:40:23;;;;;;;1.92;0.85;;;16.10;76.90;;;;;;2071317;28;20114;-94
2022/07/05 00:41:42;;;;;;;1.77;0.77;;;16.10;77.00;;;;;;2081982;28;20037;-94
2022/07/05 00:43:01;;;;;;;1.67;0.80;;;16.10;77.00;;;;;;2072060;28;20046;-95
2022/07/05 00:44:36;;;;;;;1.63;0.70;;;16.10;77.10;;;;;;2073083;28;20426;-94
2022/07/05 00:45:56;;;;;;;1.25;0.77;;;16.10;77.10;;;;;;2081604;28;20077;-95
2022/07/05 00:47:16;;;;;;;1.23;0.80;;;16.10;77.10;;;;;;2074803;28;20049;-94
2022/07/05 00:48:35;;;;;;;2.20;0.93;;;16.10;77.20;;;;;;2087050;28;20060;-95
2022/07/05 00:49:54;;;;;;;3.10;0.90;;;16.00;77.20;;;;;;2071383;28;20033;-95
2022/07/05 00:51:14;;;;;;;2.00;0.80;;;16.00;77.30;;;;;;2076482;28;20037;-95
2022/07/05 00:52:33;;;;;;;2.40;0.88;;;16.10;77.40;;;;;;2076820;28;20025;-94
2022/07/05 00:53:52;;;;;;;1.60;0.93;;;16.00;77.40;;;;;;2088257;28;20040;-94
2022/07/05 00:55:11;;;;;;;1.35;0.77;;;16.00;77.40;;;;;;2096061;28;20056;-95
2022/07/05 00:56:31;;;;;;;1.45;0.85;;;16.00;77.50;;;;;;2087963;28;20503;-95
2022/07/05 00:57:51;;;;;;;1.02;0.70;;;16.00;77.60;;;;;;2080336;28;20033;-94
2022/07/05 00:59:12;;;;;;;2.95;0.80;;;15.90;77.70;;;;;;2083061;28;20048;-94
2022/07/05 01:00:31;;;;;;;;;;;15.90;78.40;;;;;;2085991;28;20049;-94
2022/07/05 01:01:50;;;;;;;1.23;0.70;;;15.80;77.80;;;;;;2088939;28;19908;-95
2022/07/05 01:03:11;;;;;;;1.90;0.90;;;15.80;77.90;;;;;;2099118;28;20045;-94
2022/07/05 01:04:30;;;;;;;2.17;0.73;;;15.80;78.10;;;;;;2083754;28;20037;-95
2022/07/05 01:05:50;;;;;;;1.20;0.82;;;15.70;78.20;;;;;;2077994;28;20053;-94
2022/07/05 01:07:09;;;;;;;1.30;0.77;;;15.60;78.40;;;;;;2081563;28;20033;-94
2022/07/05 01:08:29;;;;;;;1.48;0.80;;;15.60;78.60;;;;;;2084664;28;20030;-94
2022/07/05 01:09:49;;;;;;;1.85;0.88;;;15.50;78.70;;;;;;2079169;28;20034;-95
2022/07/05 01:11:10;;;;;;;2.85;0.73;;;15.60;78.90;;;;;;2094826;28;20036;-95
2022/07/05 01:12:29;;;;;;;1.58;0.80;;;15.50;79.00;;;;;;2093054;28;20514;-96
2022/07/05 01:13:49;;;;;;;1.40;0.80;;;15.50;79.10;;;;;;2084162;28;20431;-93
2022/07/05 01:15:08;;;;;;;1.05;0.70;;;15.50;79.20;;;;;;2084813;28;20041;-96
2022/07/05 01:16:28;;;;;;;2.10;0.75;;;15.50;79.30;;;;;;2084454;28;20527;-95
2022/07/05 01:17:47;;;;;;;1.73;1.00;;;15.50;79.40;;;;;;2083909;28;20029;-94
2022/07/05 01:19:07;;;;;;;2.55;0.75;;;15.50;79.40;;;;;;2092221;28;20107;-95
2022/07/05 01:20:26;;;;;;;4.18;1.02;;;15.50;79.40;;;;;;2081869;28;20046;-95
2022/07/05 01:21:48;;;;;;;1.67;0.80;;;15.50;79.40;;;;;;2086843;28;20487;-94
2022/07/05 01:23:08;;;;;;;1.40;0.82;;;15.50;79.40;;;;;;2088985;28;20127;-95
2022/07/05 01:24:27;;;;;;;1.45;0.70;;;15.50;79.40;;;;;;2070385;28;20069;-94
2022/07/05 01:25:47;;;;;;;2.38;0.80;;;15.50;79.50;;;;;;2070458;28;20041;-95
2022/07/05 01:27:07;;;;;;;1.48;0.80;;;15.50;79.60;;;;;;2080805;28;20419;-95
2022/07/05 01:28:26;;;;;;;1.77;0.85;;;15.50;79.60;;;;;;2079470;28;20053;-96
2022/07/05 01:29:46;;;;;;;2.13;0.95;;;15.50;79.60;;;;;;2075752;28;20516;-94
2022/07/05 01:31:05;;;;;;;1.75;0.80;;;15.50;79.60;;;;;;2082870;28;20048;-95
2022/07/05 01:32:24;;;;;;;2.78;1.10;;;15.50;79.60;;;;;;2086999;28;20037;-95
2022/07/05 01:33:43;;;;;;;1.48;0.80;;;15.60;79.60;;;;;;2087121;28;20029;-93
2022/07/05 01:35:04;;;;;;;1.48;0.77;;;15.50;79.60;;;;;;2083432;28;20025;-95
2022/07/05 01:36:23;;;;;;;;;;;15.60;79.70;;;;;;2084522;28;20044;-95
2022/07/05 01:37:43;;;;;;;1.30;0.70;;;15.50;79.60;;;;;;2092390;28;19908;-95
2022/07/05 01:39:04;;;;;;;1.17;0.70;;;15.50;79.60;;;;;;2088949;28;20049;-94
2022/07/05 01:40:24;;;;;;;1.63;0.70;;;15.50;79.80;;;;;;2099085;28;20032;-92
2022/07/05 01:41:43;;;;;;;1.65;0.88;;;15.50;79.80;;;;;;2085369;28;20112;-93
2022/07/05 01:43:03;;;;;;;1.80;0.73;;;15.50;80.00;;;;;;2082739;28;20049;-92
2022/07/05 01:44:22;;;;;;;1.65;0.93;;;15.40;80.00;;;;;;2085102;28;20037;-94
2022/07/05 01:45:43;;;;;;;1.67;0.80;;;15.50;80.00;;;;;;2084447;28;20082;-94
2022/07/05 01:47:05;;;;;;;1.48;0.80;;;15.50;80.00;;;;;;2078585;28;20033;-94
2022/07/05 01:48:28;;;;;;;2.20;0.90;;;15.50;80.10;;;;;;2082740;28;20105;-95
2022/07/05 01:49:50;;;;;;;1.38;0.70;;;15.50;80.10;;;;;;2094613;28;20028;-95
2022/07/05 01:51:18;;;;;;;1.88;0.90;;;15.50;80.10;;;;;;2087517;28;20049;-94
2022/07/05 01:52:39;;;;;;;1.83;0.80;;;15.50;80.20;;;;;;2088110;28;20033;-94
2022/07/05 01:53:58;;;;;;;2.10;0.90;;;15.40;80.10;;;;;;2087913;28;20112;-96
2022/07/05 01:55:18;;;;;;;1.50;0.80;;;15.40;80.30;;;;;;2078659;28;20041;-95
2022/07/05 01:56:38;;;;;;;1.17;0.80;;;15.40;80.30;;;;;;2083583;28;20120;-95
2022/07/05 01:57:58;;;;;;;1.65;0.90;;;15.40;80.50;;;;;;2071419;28;20034;-95
2022/07/05 01:59:18;;;;;;;2.92;0.90;;;15.40;80.50;;;;;;2081214;28;20048;-95
2022/07/05 02:00:50;;;;;;;2.30;0.95;;;15.40;80.50;;;;;;2089818;28;20063;-95
2022/07/05 02:02:09;;;;;;;2.95;0.93;;;15.40;80.60;;;;;;2092153;28;20036;-94
2022/07/05 02:03:30;;;;;;;2.05;0.90;;;15.40;80.50;;;;;;2090360;28;20056;-95
2022/07/05 02:04:49;;;;;;;1.35;0.90;;;15.40;80.50;;;;;;2082270;28;20045;-95
2022/07/05 02:06:10;;;;;;;2.13;1.00;;;15.40;80.50;;;;;;2083207;28;20041;-94
2022/07/05 02:07:29;;;;;;;;;;;15.40;80.50;;;;;;2085417;28;20103;-95
2022/07/05 02:08:48;;;;;;;2.50;0.80;;;15.50;80.40;;;;;;2087723;28;20260;-95
2022/07/05 02:10:08;;;;;;;1.85;0.90;;;15.50;80.40;;;;;;2080803;28;20038;-95
2022/07/05 02:11:27;;;;;;;1.85;0.90;;;15.50;80.40;;;;;;2086723;28;20033;-96
2022/07/05 02:12:46;;;;;;;1.77;0.90;;;15.40;80.40;;;;;;2093276;28;20446;-95
2022/07/05 02:14:06;;;;;;;1.70;1.00;;;15.40;80.60;;;;;;2090500;28;20033;-95
2022/07/05 02:15:25;;;;;;;1.33;0.80;;;15.40;80.70;;;;;;2075891;28;20447;-95
2022/07/05 02:16:44;;;;;;;1.77;1.00;;;15.30;80.80;;;;;;2079453;28;20041;-95
2022/07/05 02:18:05;;;;;;;2.88;1.00;;;15.30;80.90;;;;;;2086063;28;20072;-95
2022/07/05 02:19:25;;;;;;;;;;;15.30;81.10;;;;;;2092878;28;20116;-95
2022/07/05 02:20:44;;;;;;;2.08;1.10;;;15.30;81.00;;;;;;2094443;28;19943;-95
2022/07/05 02:22:03;;;;;;;1.33;0.85;;;15.30;81.10;;;;;;2088820;28;20049;-95
2022/07/05 02:23:23;;;;;;;2.17;1.05;;;15.30;81.10;;;;;;2076904;28;20049;-95
2022/07/05 02:24:42;;;;;;;2.10;1.10;;;15.30;81.20;;;;;;2083000;28;20041;-94
2022/07/05 02:26:01;;;;;;;1.52;1.00;;;15.30;81.30;;;;;;2076339;28;20037;-95
2022/07/05 02:27:20;;;;;;;1.45;1.00;;;15.30;81.30;;;;;;2081771;28;20048;-94
2022/07/05 02:28:40;;;;;;;2.13;1.10;;;15.20;81.40;;;;;;2085917;28;20048;-93
2022/07/05 02:30:00;;;;;;;2.00;1.17;;;15.20;81.50;;;;;;2092842;28;20115;-94
2022/07/05 02:31:20;;;;;;;2.35;1.20;;;15.20;81.70;;;;;;2088454;28;20033;-95
2022/07/05 02:32:39;;;;;;;2.45;1.00;;;15.20;81.80;;;;;;2085983;28;20041;-94
2022/07/05 02:33:59;;;;;;;2.70;1.40;;;15.10;81.80;;;;;;2081140;28;20041;-94
2022/07/05 02:35:19;;;;;;;2.58;1.10;;;15.20;81.90;;;;;;2085618;28;20029;-95
2022/07/05 02:36:38;;;;;;;3.25;1.35;;;15.10;81.90;;;;;;2088075;28;20033;-95
2022/07/05 02:37:57;;;;;;;2.35;1.20;;;15.20;81.90;;;;;;2091468;28;20499;-95
2022/07/05 02:39:17;;;;;;;2.65;1.30;;;15.20;82.00;;;;;;2077825;28;20030;-94
2022/07/05 02:40:36;;;;;;;2.33;1.23;;;15.20;82.00;;;;;;2081375;28;20048;-95
2022/07/05 02:41:55;;;;;;;2.25;1.30;;;15.20;82.00;;;;;;2079986;28;20120;-95
2022/07/05 02:43:15;;;;;;;3.03;0.93;;;15.30;82.10;;;;;;2080177;28;20049;-95
2022/07/05 02:44:35;;;;;;;2.55;1.00;;;15.30;82.10;;;;;;2072024;28;20124;-95
2022/07/05 02:45:54;;;;;;;1.75;1.10;;;15.30;82.10;;;;;;2083182;28;20430;-94
2022/07/05 02:47:13;;;;;;;1.60;0.93;;;15.30;82.00;;;;;;2071997;28;20129;-95
2022/07/05 02:48:33;;;;;;;2.30;1.10;;;15.30;82.00;;;;;;2084875;28;20148;-95
2022/07/05 02:49:53;;;;;;;2.47;1.00;;;15.40;82.10;;;;;;2082154;28;20033;-94
2022/07/05 02:51:12;;;;;;;2.10;1.00;;;15.40;82.00;;;;;;2066587;28;20117;-96
2022/07/05 02:52:31;;;;;;;2.28;1.02;;;15.40;82.10;;;;;;2081141;28;20041;-95
2022/07/05 02:53:50;;;;;;;1.67;1.00;;;15.50;82.00;;;;;;2076343;28;20037;-94
2022/07/05 02:55:09;;;;;;;1.77;1.08;;;15.50;82.00;;;;;;2067107;28;20516;-95
2022/07/05 02:56:29;;;;;;;2.05;1.00;;;15.50;81.90;;;;;;2075930;28;20462;-96
2022/07/05 02:57:48;;;;;;;1.92;0.88;;;15.50;81.90;;;;;;2071671;28;20038;-96
2022/07/05 02:59:08;;;;;;;1.98;0.90;;;15.50;81.90;;;;;;2080116;28;20116;-95
2022/07/05 03:00:27;;;;;;;2.50;1.00;;;15.50;82.00;;;;;;2076238;28;20037;-94
2022/07/05 03:01:46;;;;;;;2.60;1.10;;;15.50;82.00;;;;;;2071617;28;20042;-95
2022/07/05 03:03:06;;;;;;;1.52;0.98;;;15.50;82.00;;;;;;2079772;28;20535;-95
2022/07/05 03:04:25;;;;;;;2.17;0.73;;;15.50;82.00;;;;;;2075814;28;20046;-94
2022/07/05 03:05:44;;;;;;;1.45;0.90;;;15.50;82.10;;;;;;2080840;28;20069;-95
2022/07/05 03:07:04;;;;;;;1.35;0.85;;;15.50;82.20;;;;;;2077953;28;20515;-94
2022/07/05 03:08:23;;;;;;;2.70;0.90;;;15.50;82.20;;;;;;2073243;28;20073;-95
2022/07/05 03:09:42;;;;;;;2.28;0.80;;;15.50;82.20;;;;;;2072953;28;20042;-94
2022/07/05 03:11:01;;;;;;;2.10;1.05;;;15.50;82.20;;;;;;2085910;28;20045;-95
2022/07/05 03:12:21;;;;;;;1.52;0.73;;;15.50;82.20;;;;;;2080386;28;20100;-94
2022/07/05 03:13:40;;;;;;;1.67;0.82;;;15.60;82.40;;;;;;2074394;28;20083;-94
2022/07/05 03:14:59;;;;;;;2.42;0.90;;;15.60;82.50;;;;;;2082040;28;20033;-95
2022/07/05 03:16:18;;;;;;;1.67;0.70;;;15.60;82.50;;;;;;2068909;28;20039;-95
2022/07/05 03:17:37;;;;;;;1.85;0.60;;;15.60;82.50;;;;;;2076199;28;20037;-94
2022/07/05 03:18:56;;;;;;;1.15;0.70;;;15.60;82.50;;;;;;2076962;28;20050;-95
2022/07/05 03:20:15;;;;;;;1.08;0.60;;;15.70;82.60;;;;;;2074718;28;20057;-95
2022/07/05 03:21:35;;;;;;;2.05;0.70;;;15.70;82.50;;;;;;2082834;28;20049;-95
2022/07/05 03:22:54;;;;;;;1.77;0.80;;;15.70;82.50;;;;;;2084662;28;20045;-95
2022/07/05 03:24:13;;;;;;;1.70;0.80;;;15.70;82.50;;;;;;2077178;28;20038;-93
2022/07/05 03:25:33;;;;;;;1.35;0.65;;;15.70;82.50;;;;;;2081498;28;20093;-95
2022/07/05 03:26:52;;;;;;;0.70;0.57;;;15.80;82.70;;;;;;2087550;28;20244;-95
2022/07/05 03:28:12;;;;;;;1.85;0.70;;;15.70;82.70;;;;;;2086600;28;20487;-95
2022/07/05 03:29:31;;;;;;;1.95;0.77;;;15.70;82.70;;;;;;2078859;28;20041;-94
2022/07/05 03:30:50;;;;;;;1.17;0.60;;;15.80;82.80;;;;;;2078637;28;20503;-95
2022/07/05 03:32:09;;;;;;;1.13;0.60;;;15.80;82.90;;;;;;2064967;28;20034;-95
2022/07/05 03:33:28;;;;;;;1.17;0.57;;;15.80;82.90;;;;;;2071657;28;20531;-94
2022/07/05 03:34:48;;;;;;;1.30;0.60;;;15.80;82.90;;;;;;2071662;28;20042;-95
2022/07/05 03:36:07;;;;;;;2.15;0.80;;;15.80;82.90;;;;;;2076507;28;20065;-96
2022/07/05 03:37:27;;;;;;;1.95;0.90;;;15.80;83.00;;;;;;2074515;28;20033;-95
2022/07/05 03:38:46;;;;;;;1.00;0.52;;;15.80;83.00;;;;;;2084540;28;20077;-96
2022/07/05 03:40:06;;;;;;;1.60;0.68;;;15.80;83.00;;;;;;2078605;28;20041;-95
2022/07/05 03:41:25;;;;;;;1.53;0.70;;;15.80;83.00;;;;;;2068379;28;20050;-94
2022/07/05 03:42:44;;;;;;;1.65;0.70;;;15.80;83.00;;;;;;2084495;28;20295;-95
2022/07/05 03:44:04;;;;;;;1.20;0.55;;;15.90;83.10;;;;;;2086736;28;20041;-94
2022/07/05 03:45:23;;;;;;;1.42;0.55;;;15.80;83.00;;;;;;2082777;28;20033;-95
2022/07/05 03:46:42;;;;;;;1.35;0.60;;;15.80;83.00;;;;;;2071516;28;20547;-94
2022/07/05 03:48:02;;;;;;;4.28;0.80;;;15.80;83.10;;;;;;2078662;28;20049;-94
2022/07/05 03:49:21;;;;;;;1.50;0.77;;;15.80;83.10;;;;;;2087514;28;20037;-96
2022/07/05 03:50:40;;;;;;;1.23;0.70;;;15.80;83.10;;;;;;2074127;28;20085;-94
2022/07/05 03:51:59;;;;;;;1.38;0.65;;;15.80;83.10;;;;;;2081126;28;20104;-94
2022/07/05 03:53:18;;;;;;;1.58;0.80;;;15.80;83.20;;;;;;2070826;28;20042;-94
2022/07/05 03:54:38;;;;;;;1.65;0.68;;;15.80;83.20;;;;;;2067980;28;20126;-94
2022/07/05 03:55:57;;;;;;;1.77;0.70;;;15.90;83.20;;;;;;2078282;28;20033;-95
2022/07/05 03:57:16;;;;;;;1.98;0.90;;;15.90;83.80;;;;;;2079156;28;20041;-95
2022/07/05 03:58:35;;;;;;;1.52;0.82;;;15.90;83.10;;;;;;2078601;28;20500;-93
2022/07/05 03:59:54;;;;;;;1.63;0.80;;;15.90;83.20;;;;;;2071143;28;20038;-94
2022/07/05 04:01:14;;;;;;;2.45;0.88;;;15.90;83.10;;;;;;2069098;28;20046;-94
2022/07/05 04:02:33;;;;;;;1.90;0.90;;;15.90;83.10;;;;;;2084052;28;20403;-94
2022/07/05 04:03:52;;;;;;;1.70;0.90;;;15.90;83.10;;;;;;2079240;28;20464;-94
2022/07/05 04:05:12;;;;;;;1.58;0.80;;;15.90;83.00;;;;;;2084120;28;20068;-93
2022/07/05 04:06:31;;;;;;;2.13;0.90;;;15.90;83.00;;;;;;2074362;28;20054;-94
2022/07/05 04:07:54;;;;;;;2.10;0.90;;;15.90;83.00;;;;;;2073946;28;20045;-94
2022/07/05 04:09:13;;;;;;;0.98;0.65;;;16.00;83.00;;;;;;2081956;28;20076;-94
2022/07/05 04:10:33;;;;;;;1.13;0.73;;;16.00;82.90;;;;;;2071726;28;20046;-94
2022/07/05 04:11:52;;;;;;;1.65;0.70;;;16.00;82.90;;;;;;2089411;28;20068;-94
2022/07/05 04:13:11;;;;;;;1.88;0.80;;;16.00;82.90;;;;;;2083133;28;20033;-94
2022/07/05 04:14:31;;;;;;;1.60;0.80;;;16.10;82.90;;;;;;2083256;28;20033;-95
2022/07/05 04:15:50;;;;;;;1.23;0.70;;;16.10;83.00;;;;;;2082129;28;20046;-94
2022/07/05 04:17:09;;;;;;;1.88;0.88;;;16.10;83.00;;;;;;2091030;28;20017;-94
2022/07/05 04:18:29;;;;;;;1.50;0.90;;;16.10;83.00;;;;;;2096847;28;20025;-95
2022/07/05 04:19:48;;;;;;;2.05;0.82;;;16.10;83.00;;;;;;2085385;28;20033;-94
2022/07/05 04:21:07;;;;;;;1.38;0.80;;;16.10;83.10;;;;;;2072204;28;20069;-95
2022/07/05 04:22:26;;;;;;;2.85;0.90;;;16.10;83.10;;;;;;2076805;28;20041;-95
2022/07/05 04:23:45;;;;;;;2.13;0.95;;;16.10;83.20;;;;;;2085037;28;20045;-95
2022/07/05 04:25:17;;;;;;;1.92;0.88;;;16.10;83.30;;;;;;2089002;28;20041;-94
2022/07/05 04:26:37;;;;;;;1.77;1.00;;;16.10;83.30;;;;;;2075319;28;20042;-95
2022/07/05 04:27:56;;;;;;;1.95;0.88;;;16.10;83.30;;;;;;2079556;28;20045;-95
2022/07/05 04:29:15;;;;;;;1.90;1.00;;;16.10;83.30;;;;;;2089879;28;20044;-95
2022/07/05 04:30:35;;;;;;;2.00;1.00;;;16.20;83.50;;;;;;2089660;28;20510;-94
2022/07/05 04:31:55;;;;;;;1.15;0.88;;;16.20;83.40;;;;;;2088184;28;20038;-94
2022/07/05 04:33:15;;;;;;;2.03;0.82;;;16.20;83.50;;;;;;2085415;28;20041;-94
2022/07/05 04:34:35;;;;;;;3.70;1.10;;;16.20;83.60;;;;;;2084717;28;20119;-94
2022/07/05 04:35:54;;;;;;;1.80;1.10;;;16.20;83.60;;;;;;2068230;28;20046;-95
2022/07/05 04:37:13;;;;;;;1.70;0.90;;;16.30;83.60;;;;;;2068789;28;20124;-94
2022/07/05 04:38:32;;;;;;;2.38;1.00;;;16.20;83.60;;;;;;2076123;28;20045;-95
2022/07/05 04:39:52;;;;;;;1.83;0.90;;;16.30;83.70;;;;;;2077662;28;20041;-94
2022/07/05 04:41:11;;;;;;;1.85;1.13;;;16.30;83.70;;;;;;2068890;28;20050;-93
2022/07/05 04:42:30;;;;;;;3.15;1.25;;;16.30;83.80;;;;;;2074094;28;20435;-94
2022/07/05 04:43:50;;;;;;;1.35;1.00;;;16.40;83.90;;;;;;2079293;28;20042;-94
2022/07/05 04:45:10;;;;;;;1.55;1.10;;;16.30;83.90;;;;;;2083956;28;20037;-95
2022/07/05 04:46:29;;;;;;;2.25;1.38;;;16.30;83.90;;;;;;2079594;28;20045;-95
2022/07/05 04:47:50;;;;;;;1.98;1.20;;;16.40;84.00;;;;;;2082934;28;20113;-96
2022/07/05 04:49:09;;;;;;;2.20;1.30;;;16.40;84.00;;;;;;2076897;28;20045;-93
2022/07/05 04:50:28;;;;;;;2.47;1.33;;;16.40;84.00;;;;;;2064359;28;20030;-94
2022/07/05 04:51:47;;;;;;;2.50;1.30;;;16.40;84.00;;;;;;2065223;28;20069;-94
2022/07/05 04:53:07;;;;;;;2.80;1.20;;;16.40;84.00;;;;;;2064275;28;20033;-94
2022/07/05 04:54:26;;;;;;;2.65;1.10;;;16.40;84.00;;;;;;2065379;28;20041;-95
2022/07/05 04:55:45;;;;;;;3.08;1.20;;;16.40;84.10;;;;;;2082131;28;20073;-96
2022/07/05 04:57:05;;;;;;;1.85;1.05;;;16.40;84.10;;;;;;2069461;28;20019;-96
2022/07/05 04:58:24;;;;;;;3.17;1.33;;;16.40;84.10;;;;;;2075138;28;20038;-94
2022/07/05 04:59:43;;;;;;;2.53;1.17;;;16.50;84.30;;;;;;2067772;28;20042;-95
2022/07/05 05:01:02;;;;;;;3.15;1.30;;;16.50;84.30;;;;;;2081406;28;20037;-94
2022/07/05 05:02:22;;;;;;;3.05;1.42;;;16.50;84.40;;;;;;2076185;28;20049;-95
2022/07/05 05:03:42;;;;;;;1.92;1.15;;;16.50;84.50;;;;;;2064426;28;20051;-94
2022/07/05 05:05:02;;;;;;;1.85;1.30;;;16.50;84.50;;;;;;2080854;28;20481;-95
2022/07/05 05:06:21;;;;;;;2.15;1.38;;;16.60;84.60;;;;;;2085323;28;20037;-94
2022/07/05 05:07:44;;;;;;;2.00;1.35;;;16.50;84.50;;;;;;2079923;28;20036;-96
2022/07/05 05:09:03;;;;;;;7.30;1.60;;;16.60;84.50;;;;;;2082776;28;20097;-95
2022/07/05 05:10:24;;;;;;;3.22;1.55;;;16.60;84.50;;;;;;2084527;28;20037;-94
2022/07/05 05:11:43;;;;;;;3.67;1.63;;;16.60;84.50;;;;;;2081916;28;20037;-94
2022/07/05 05:13:02;;;;;;;2.65;1.63;;;16.60;84.50;;;;;;2071064;28;20034;-94
2022/07/05 05:14:22;;;;;;;2.35;1.52;;;16.70;84.60;;;;;;2078390;28;20069;-95
2022/07/05 05:15:41;;;;;;;2.50;1.58;;;16.70;84.70;;;;;;2075235;28;20106;-94
2022/07/05 05:17:00;;;;;;;3.15;1.85;;;16.70;84.60;;;;;;2075479;28;20038;-94
2022/07/05 05:18:24;;;;;;;4.43;2.10;;;16.70;84.60;;;;;;2079417;28;20050;-94
2022/07/05 05:19:44;;;;;;;4.38;2.17;;;16.80;84.70;;;;;;2078448;28;20034;-95
2022/07/05 05:21:04;;;;;;;3.20;1.92;;;16.80;84.70;;;;;;2075247;28;20089;-95
2022/07/05 05:22:30;;;;;;;2.60;1.80;;;16.80;84.70;;;;;;2079893;28;20042;-96
2022/07/05 05:23:50;;;;;;;2.92;1.80;;;16.90;84.70;;;;;;2077681;28;20062;-95
2022/07/05 05:25:10;;;;;;;2.58;1.90;;;16.90;84.70;;;;;;2074037;28;20042;-96
2022/07/05 05:26:31;;;;;;;3.30;1.92;;;16.90;84.80;;;;;;2080542;28;20491;-96
2022/07/05 05:27:50;;;;;;;;;;;16.90;84.80;;;;;;2083196;28;20029;-96
2022/07/05 05:29:10;;;;;;;3.17;1.67;;;16.90;84.60;;;;;;2091336;28;19948;-96
2022/07/05 05:30:29;;;;;;;3.35;2.00;;;16.90;84.60;;;;;;2080149;28;20046;-96
2022/07/05 05:31:48;;;;;;;4.65;2.13;;;16.90;84.70;;;;;;2080347;28;20038;-96
2022/07/05 05:33:08;;;;;;;3.63;2.28;;;16.90;84.70;;;;;;2083927;28;20037;-96
2022/07/05 05:34:27;;;;;;;4.45;2.40;;;16.90;85.20;;;;;;2067112;28;20035;-96
2022/07/05 05:35:47;;;;;;;3.55;2.40;;;16.90;84.70;;;;;;2080213;28;20041;-95
2022/07/05 05:37:11;;;;;;;5.40;2.80;;;17.00;84.70;;;;;;2073268;28;20030;-96
2022/07/05 05:38:31;;;;;;;5.00;2.63;;;17.00;84.70;;;;;;2083442;28;20045;-96
2022/07/05 05:39:50;;;;;;;4.97;2.95;;;17.00;84.80;;;;;;2084262;28;20038;-96
2022/07/05 05:41:11;;;;;;;5.03;2.50;;;17.00;84.70;;;;;;2076435;28;20058;-96
2022/07/05 05:42:30;;;;;;;;;;;17.00;84.60;;;;;;2072975;28;20146;-96
2022/07/05 05:43:50;;;;;;;3.63;2.30;;;17.00;84.50;;;;;;2081929;28;19913;-96
2022/07/05 05:45:09;;;;;;;4.63;2.70;;;17.00;84.60;;;;;;2074093;28;20038;-96
2022/07/05 05:46:29;;;;;;;3.85;2.53;;;17.00;84.60;;;;;;2080552;28;20053;-96
2022/07/05 05:48:18;;;;;;;4.45;2.75;;;17.10;84.50;;;;;;2078980;28;20037;-96
2022/07/05 05:49:37;;;;;;;4.60;2.67;;;17.20;85.00;;;;;;2086360;28;20057;-96
2022/07/05 05:50:56;;;;;;;4.30;2.60;;;17.20;84.20;;;;;;2092818;28;20029;-96
2022/07/05 05:52:16;;;;;;;5.03;2.90;;;17.30;84.20;;;;;;2079839;28;20069;-96
2022/07/05 05:53:35;;;;;;;6.00;3.30;;;17.30;84.20;;;;;;2088359;28;20040;-96
2022/07/05 05:54:55;;;;;;;5.10;3.10;;;17.30;84.10;;;;;;2089895;28;20093;-96
2022/07/05 05:56:14;;;;;;;5.55;3.67;;;17.30;84.10;;;;;;2084633;28;20049;-96
2022/07/05 05:57:35;;;;;;;5.40;3.28;;;17.30;84.10;;;;;;2079024;28;20128;-96
2022/07/05 05:58:54;;;;;;;4.72;3.15;;;17.40;84.20;;;;;;2089571;28;20065;-95
2022/07/05 06:00:15;;;;;;;4.75;3.20;;;17.40;84.10;;;;;;2072423;28;20130;-96
2022/07/05 06:01:34;;;;;;;5.85;3.47;;;17.40;84.10;;;;;;2077299;28;20037;-96
2022/07/05 06:02:53;;;;;;;4.95;3.35;;;17.50;84.10;;;;;;2076015;28;20041;-96
2022/07/05 06:04:13;;;;;;;6.57;3.35;;;17.50;84.10;;;;;;2071392;28;20041;-94
2022/07/05 06:05:32;;;;;;;5.20;3.45;;;17.50;84.00;;;;;;2072326;28;20507;-94
2022/07/05 06:06:51;;;;;;;5.78;3.20;;;17.60;84.10;;;;;;2085062;28;20116;-93
2022/07/05 06:08:11;;;;;;;4.72;3.15;;;17.60;84.10;;;;;;2080569;28;20442;-94
2022/07/05 06:09:30;;;;;;;5.68;3.65;;;17.60;84.10;;;;;;2072157;28;20037;-93
2022/07/05 06:10:49;;;;;;;4.03;2.85;;;17.60;84.10;;;;;;2077480;28;20045;-93
2022/07/05 06:12:08;;;;;;;5.43;3.45;;;17.60;84.10;;;;;;2077055;28;20033;-93
2022/07/05 06:13:28;;;;;;;5.40;3.83;;;17.60;84.10;;;;;;2068820;28;20037;-94
2022/07/05 06:14:47;;;;;;;6.28;3.75;;;17.60;84.20;;;;;;2068470;28;20042;-94
2022/07/05 06:16:07;;;;;;;6.60;4.18;;;17.60;84.30;;;;;;2073452;28;20081;-92
2022/07/05 06:17:26;;;;;;;6.97;3.70;;;17.70;84.30;;;;;;2093778;28;20040;-94
2022/07/05 06:18:45;;;;;;;5.78;3.53;;;17.70;84.30;;;;;;2083143;28;20073;-93
2022/07/05 06:20:09;;;;;;;5.68;3.90;;;17.70;84.30;;;;;;2075819;28;20042;-94
2022/07/05 06:21:28;;;;;;;5.93;3.55;;;17.70;84.30;;;;;;2084567;28;20048;-93
2022/07/05 06:22:49;;;;;;;6.30;4.05;;;17.80;84.90;;;;;;2082099;28;20049;-94
2022/07/05 06:24:08;;;;;;;;;;;17.80;84.20;;;;;;2085809;28;20037;-94
2022/07/05 06:25:28;;;;;;;5.90;3.08;;;17.80;84.10;;;;;;2080664;28;20356;-94
2022/07/05 06:26:48;;;;;;;5.20;3.63;;;17.80;84.10;;;;;;2076754;28;20092;-93
2022/07/05 06:28:08;;;;;;;6.78;3.85;;;17.90;84.00;;;;;;2076447;28;20253;-94
2022/07/05 06:29:27;;;;;;;5.82;3.42;;;17.90;84.00;;;;;;2086799;28;20052;-94
2022/07/05 06:30:46;;;;;;;4.82;3.45;;;17.90;83.80;;;;;;2079970;28;20041;-94
2022/07/05 06:32:06;;;;;;;5.38;3.30;;;18.00;83.90;;;;;;2079848;28;20519;-94
2022/07/05 06:33:25;;;;;;;4.85;3.47;;;18.00;83.70;;;;;;2074227;28;20048;-94
2022/07/05 06:34:44;;;;;;;5.63;3.70;;;18.10;83.70;;;;;;2064278;28;20491;-95
2022/07/05 06:36:04;;;;;;;6.90;3.13;;;18.10;83.60;;;;;;2085347;28;20048;-93
2022/07/05 06:37:23;;;;;;;5.90;3.20;;;18.10;83.50;;;;;;2082915;28;20045;-95
2022/07/05 06:38:42;;;;;;;5.35;3.40;;;18.10;83.50;;;;;;2076949;28;20038;-93
2022/07/05 06:40:01;;;;;;;5.13;3.20;;;18.10;84.00;;;;;;2063493;28;20420;-95
2022/07/05 06:41:20;;;;;;;6.38;3.15;;;18.20;83.40;;;;;;2065220;28;20034;-94
2022/07/05 06:42:40;;;;;;;4.10;2.95;;;18.20;83.40;;;;;;2076060;28;20346;-93
2022/07/05 06:43:59;;;;;;;5.50;3.35;;;18.20;83.30;;;;;;2082831;28;20025;-94
2022/07/05 06:45:19;;;;;;;4.82;3.17;;;18.30;83.40;;;;;;2075135;28;20524;-94
2022/07/05 06:46:38;;;;;;;5.18;3.35;;;18.40;83.20;;;;;;2076850;28;20038;-94
2022/07/05 06:47:59;;;;;;;6.47;3.70;;;18.50;83.10;;;;;;2075599;28;20128;-95
2022/07/05 06:49:18;;;;;;;5.57;3.45;;;18.50;82.80;;;;;;2085453;28;20032;-94
2022/07/05 06:50:40;;;;;;;5.03;3.20;;;18.60;82.60;;;;;;2074877;28;20054;-95
2022/07/05 06:51:59;;;;;;;5.25;3.35;;;18.70;82.40;;;;;;2085377;28;20514;-94
2022/07/05 06:53:19;;;;;;;5.18;2.90;;;18.90;82.20;;;;;;2073757;28;20049;-94
2022/07/05 06:54:38;;;;;;;4.85;3.00;;;19.00;81.90;;;;;;2071173;28;20046;-95
2022/07/05 06:55:57;;;;;;;4.72;3.00;;;19.10;81.60;;;;;;2073604;28;20042;-95
2022/07/05 06:57:23;;;;;;;6.85;2.92;;;19.30;81.40;;;;;;2076427;28;20093;-94